In Rescue
 
Open Full Screen Window  High Contrast Mode
Wind Gusting 20 knots
12
April 20, 2024 8:45 AM EDT
Weather Information
Wind Direction
  260 °
Wind Speed
  12 kt (14 mph)
Wind Gust
  20 kt (23 mph)
Altimeter
29.97 in
Visibility
10 SM
Temperature
02° C
36° F
Dewpoint
-02° C
28° F
Humidity
75%
Sky Condition
Overcast @ 7,500 ft
Broken @ 6,000 ft
Scattered @ 900 ft
VFR

METAR KSLH 201245Z AUTO 26012G20KT 10SM SCT009 BKN060 OVC075 02/M02 A2997 RMK AO2

FAA Disclaimer: The data displayed is for advisory purposes only and is not to be used for flight planning or operations.